sensor_id;sensor_type;location;lat;lon;timestamp;temperature;humidity
29817;DHT22;16805;52.956;5.906;2023-08-08T00:01:28;15.00;99.90
29817;DHT22;16805;52.956;5.906;2023-08-08T00:03:59;15.00;99.90
29817;DHT22;16805;52.956;5.906;2023-08-08T00:06:46;15.00;99.90
29817;DHT22;16805;52.956;5.906;2023-08-08T00:09:18;15.00;99.90
29817;DHT22;16805;52.956;5.906;2023-08-08T00:17:35;14.90;99.90
29817;DHT22;16805;52.956;5.906;2023-08-08T00:20:25;14.90;99.90
29817;DHT22;16805;52.956;5.906;2023-08-08T00:23:03;14.90;99.90
29817;DHT22;16805;52.956;5.906;2023-08-08T00:26:02;14.90;99.90
29817;DHT22;16805;52.956;5.906;2023-08-08T00:28:39;14.90;99.90
29817;DHT22;16805;52.956;5.906;2023-08-08T00:31:09;14.90;99.90
29817;DHT22;16805;52.956;5.906;2023-08-08T00:34:08;14.90;99.90
29817;DHT22;16805;52.956;5.906;2023-08-08T00:36:41;14.90;99.90
29817;DHT22;16805;52.956;5.906;2023-08-08T00:39:16;14.90;99.90
29817;DHT22;16805;52.956;5.906;2023-08-08T00:41:55;14.90;99.90
29817;DHT22;16805;52.956;5.906;2023-08-08T00:44:28;14.90;99.90
29817;DHT22;16805;52.956;5.906;2023-08-08T00:46:55;14.90;99.90
29817;DHT22;16805;52.956;5.906;2023-08-08T00:49:22;14.90;99.90
29817;DHT22;16805;52.956;5.906;2023-08-08T00:52:06;14.90;99.90
29817;DHT22;16805;52.956;5.906;2023-08-08T00:54:34;14.90;99.90
29817;DHT22;16805;52.956;5.906;2023-08-08T00:57:08;14.90;99.90
29817;DHT22;16805;52.956;5.906;2023-08-08T00:59:40;14.90;99.90
29817;DHT22;16805;52.956;5.906;2023-08-08T01:02:28;14.90;99.90
29817;DHT22;16805;52.956;5.906;2023-08-08T01:08:10;14.90;99.90
29817;DHT22;16805;52.956;5.906;2023-08-08T01:10:41;14.90;99.90
29817;DHT22;16805;52.956;5.906;2023-08-08T01:13:17;14.90;99.90
29817;DHT22;16805;52.956;5.906;2023-08-08T01:15:54;14.90;99.90
29817;DHT22;16805;52.956;5.906;2023-08-08T01:18:32;14.90;99.90
29817;DHT22;16805;52.956;5.906;2023-08-08T01:21:16;14.80;99.90
29817;DHT22;16805;52.956;5.906;2023-08-08T01:26:48;14.80;99.90
29817;DHT22;16805;52.956;5.906;2023-08-08T01:29:33;14.80;99.90
29817;DHT22;16805;52.956;5.906;2023-08-08T01:32:20;14.80;99.90
29817;DHT22;16805;52.956;5.906;2023-08-08T01:34:50;14.80;99.90
29817;DHT22;16805;52.956;5.906;2023-08-08T01:37:39;14.80;99.90
29817;DHT22;16805;52.956;5.906;2023-08-08T01:40:09;14.80;99.90
29817;DHT22;16805;52.956;5.906;2023-08-08T01:42:38;14.80;99.90
29817;DHT22;16805;52.956;5.906;2023-08-08T01:45:31;14.80;99.90
29817;DHT22;16805;52.956;5.906;2023-08-08T01:48:09;14.80;99.90
29817;DHT22;16805;52.956;5.906;2023-08-08T01:50:40;14.80;99.90
29817;DHT22;16805;52.956;5.906;2023-08-08T01:53:14;14.80;99.90
29817;DHT22;16805;52.956;5.906;2023-08-08T01:55:47;14.80;99.90
29817;DHT22;16805;52.956;5.906;2023-08-08T01:58:44;14.80;99.90
29817;DHT22;16805;52.956;5.906;2023-08-08T02:01:13;14.80;99.90
29817;DHT22;16805;52.956;5.906;2023-08-08T02:03:42;14.80;99.90
29817;DHT22;16805;52.956;5.906;2023-08-08T02:06:23;14.80;99.90
29817;DHT22;16805;52.956;5.906;2023-08-08T02:09:10;14.80;99.90
29817;DHT22;16805;52.956;5.906;2023-08-08T02:11:53;14.70;99.90
29817;DHT22;16805;52.956;5.906;2023-08-08T02:14:25;14.70;99.90
29817;DHT22;16805;52.956;5.906;2023-08-08T02:16:54;14.70;99.90
29817;DHT22;16805;52.956;5.906;2023-08-08T02:19:26;14.70;99.90
29817;DHT22;16805;52.956;5.906;2023-08-08T02:21:57;14.70;99.90
29817;DHT22;16805;52.956;5.906;2023-08-08T02:24:30;14.70;99.90
29817;DHT22;16805;52.956;5.906;2023-08-08T02:26:59;14.70;99.90
29817;DHT22;16805;52.956;5.906;2023-08-08T02:29:27;14.70;99.90
29817;DHT22;16805;52.956;5.906;2023-08-08T02:32:28;14.70;99.90
29817;DHT22;16805;52.956;5.906;2023-08-08T02:35:12;14.70;99.90
29817;DHT22;16805;52.956;5.906;2023-08-08T02:37:40;14.70;99.90
29817;DHT22;16805;52.956;5.906;2023-08-08T02:40:09;14.70;99.90
29817;DHT22;16805;52.956;5.906;2023-08-08T02:42:42;14.60;99.90
29817;DHT22;16805;52.956;5.906;2023-08-08T02:45:23;14.70;99.90
29817;DHT22;16805;52.956;5.906;2023-08-08T02:48:06;14.60;99.90
29817;DHT22;16805;52.956;5.906;2023-08-08T02:50:52;14.70;99.90
29817;DHT22;16805;52.956;5.906;2023-08-08T02:53:31;14.60;99.90
29817;DHT22;16805;52.956;5.906;2023-08-08T02:56:07;14.60;99.90
29817;DHT22;16805;52.956;5.906;2023-08-08T02:58:45;14.60;99.90
29817;DHT22;16805;52.956;5.906;2023-08-08T03:01:32;14.60;99.90
29817;DHT22;16805;52.956;5.906;2023-08-08T03:04:16;14.60;99.90
29817;DHT22;16805;52.956;5.906;2023-08-08T03:07:04;14.60;99.90
29817;DHT22;16805;52.956;5.906;2023-08-08T03:09:41;14.60;99.90
29817;DHT22;16805;52.956;5.906;2023-08-08T03:12:51;14.60;99.90
29817;DHT22;16805;52.956;5.906;2023-08-08T03:15:54;14.50;99.90
29817;DHT22;16805;52.956;5.906;2023-08-08T03:18:31;14.50;99.90
29817;DHT22;16805;52.956;5.906;2023-08-08T03:21:10;14.50;99.90
29817;DHT22;16805;52.956;5.906;2023-08-08T03:24:02;14.50;99.90
29817;DHT22;16805;52.956;5.906;2023-08-08T03:26:55;14.50;99.90
29817;DHT22;16805;52.956;5.906;2023-08-08T03:29:43;14.40;99.90
29817;DHT22;16805;52.956;5.906;2023-08-08T03:32:27;14.50;99.90
29817;DHT22;16805;52.956;5.906;2023-08-08T03:35:12;14.40;99.90
29817;DHT22;16805;52.956;5.906;2023-08-08T03:38:20;14.40;99.90
29817;DHT22;16805;52.956;5.906;2023-08-08T03:41:05;14.40;99.90
29817;DHT22;16805;52.956;5.906;2023-08-08T03:43:45;14.40;99.90
29817;DHT22;16805;52.956;5.906;2023-08-08T03:46:21;14.40;99.90
29817;DHT22;16805;52.956;5.906;2023-08-08T03:49:17;14.40;99.90
29817;DHT22;16805;52.956;5.906;2023-08-08T03:51:46;14.30;99.90
29817;DHT22;16805;52.956;5.906;2023-08-08T03:54:17;14.30;99.90
29817;DHT22;16805;52.956;5.906;2023-08-08T03:57:06;14.30;99.90
29817;DHT22;16805;52.956;5.906;2023-08-08T03:59:59;14.30;99.90
29817;DHT22;16805;52.956;5.906;2023-08-08T04:02:49;14.30;99.90
29817;DHT22;16805;52.956;5.906;2023-08-08T04:13:17;14.40;99.90
29817;DHT22;16805;52.956;5.906;2023-08-08T04:16:06;14.40;99.90
29817;DHT22;16805;52.956;5.906;2023-08-08T04:19:14;14.40;99.90
29817;DHT22;16805;52.956;5.906;2023-08-08T04:21:55;14.50;99.90
29817;DHT22;16805;52.956;5.906;2023-08-08T04:24:47;14.50;99.90
29817;DHT22;16805;52.956;5.906;2023-08-08T04:27:22;14.50;99.90
29817;DHT22;16805;52.956;5.906;2023-08-08T04:30:19;14.60;99.90
29817;DHT22;16805;52.956;5.906;2023-08-08T04:33:10;14.60;99.90
29817;DHT22;16805;52.956;5.906;2023-08-08T04:35:57;14.60;99.90
29817;DHT22;16805;52.956;5.906;2023-08-08T04:38:56;14.70;99.90
29817;DHT22;16805;52.956;5.906;2023-08-08T04:41:43;14.70;99.90
29817;DHT22;16805;52.956;5.906;2023-08-08T04:44:27;14.60;99.90
29817;DHT22;16805;52.956;5.906;2023-08-08T04:47:02;14.60;99.90
29817;DHT22;16805;52.956;5.906;2023-08-08T04:49:30;14.70;99.90
29817;DHT22;16805;52.956;5.906;2023-08-08T04:51:57;14.70;99.90
29817;DHT22;16805;52.956;5.906;2023-08-08T04:54:42;14.70;99.90
29817;DHT22;16805;52.956;5.906;2023-08-08T04:57:17;14.70;99.90
29817;DHT22;16805;52.956;5.906;2023-08-08T04:59:47;14.60;99.90
29817;DHT22;16805;52.956;5.906;2023-08-08T05:02:21;14.70;99.90
29817;DHT22;16805;52.956;5.906;2023-08-08T05:05:06;14.60;99.90
29817;DHT22;16805;52.956;5.906;2023-08-08T05:07:56;14.60;99.90
29817;DHT22;16805;52.956;5.906;2023-08-08T05:10:46;14.60;99.90
29817;DHT22;16805;52.956;5.906;2023-08-08T05:13:13;14.60;99.90
29817;DHT22;16805;52.956;5.906;2023-08-08T05:15:49;14.60;99.90
29817;DHT22;16805;52.956;5.906;2023-08-08T05:18:17;14.70;99.90
29817;DHT22;16805;52.956;5.906;2023-08-08T05:20:49;14.80;99.90
29817;DHT22;16805;52.956;5.906;2023-08-08T05:23:37;14.80;99.90
29817;DHT22;16805;52.956;5.906;2023-08-08T05:26:10;15.00;99.90
29817;DHT22;16805;52.956;5.906;2023-08-08T05:28:53;15.10;99.90
29817;DHT22;16805;52.956;5.906;2023-08-08T05:31:39;15.30;99.90
29817;DHT22;16805;52.956;5.906;2023-08-08T05:34:04;15.50;99.90
29817;DHT22;16805;52.956;5.906;2023-08-08T05:36:38;15.60;99.90
29817;DHT22;16805;52.956;5.906;2023-08-08T05:39:12;15.80;99.90
29817;DHT22;16805;52.956;5.906;2023-08-08T05:41:41;16.00;99.90
29817;DHT22;16805;52.956;5.906;2023-08-08T05:44:08;16.20;99.90
29817;DHT22;16805;52.956;5.906;2023-08-08T05:46:37;16.30;99.90
29817;DHT22;16805;52.956;5.906;2023-08-08T05:49:04;16.50;99.90
29817;DHT22;16805;52.956;5.906;2023-08-08T05:51:31;16.60;99.90
29817;DHT22;16805;52.956;5.906;2023-08-08T05:54:00;16.80;99.90
29817;DHT22;16805;52.956;5.906;2023-08-08T05:56:35;16.90;99.90
29817;DHT22;16805;52.956;5.906;2023-08-08T05:59:08;17.10;99.90
29817;DHT22;16805;52.956;5.906;2023-08-08T06:01:38;17.20;99.90
29817;DHT22;16805;52.956;5.906;2023-08-08T06:04:05;17.40;99.90
29817;DHT22;16805;52.956;5.906;2023-08-08T06:06:40;17.60;99.90
29817;DHT22;16805;52.956;5.906;2023-08-08T06:09:06;17.70;99.90
29817;DHT22;16805;52.956;5.906;2023-08-08T06:11:36;17.80;99.90
29817;DHT22;16805;52.956;5.906;2023-08-08T06:14:10;18.00;99.90
29817;DHT22;16805;52.956;5.906;2023-08-08T06:16:53;18.10;99.90
29817;DHT22;16805;52.956;5.906;2023-08-08T06:19:23;18.20;99.90
29817;DHT22;16805;52.956;5.906;2023-08-08T06:35:36;18.90;99.90
29817;DHT22;16805;52.956;5.906;2023-08-08T06:38:38;19.00;99.90
29817;DHT22;16805;52.956;5.906;2023-08-08T06:41:27;19.10;99.90
29817;DHT22;16805;52.956;5.906;2023-08-08T07:06:28;19.40;99.90
29817;DHT22;16805;52.956;5.906;2023-08-08T07:16:03;19.30;99.90
29817;DHT22;16805;52.956;5.906;2023-08-08T07:18:29;19.10;99.90
29817;DHT22;16805;52.956;5.906;2023-08-08T07:20:55;19.00;99.90
29817;DHT22;16805;52.956;5.906;2023-08-08T07:23:22;18.90;99.90
29817;DHT22;16805;52.956;5.906;2023-08-08T07:25:48;18.80;99.90
29817;DHT22;16805;52.956;5.906;2023-08-08T07:28:15;18.70;99.90
29817;DHT22;16805;52.956;5.906;2023-08-08T07:30:41;18.60;99.90
29817;DHT22;16805;52.956;5.906;2023-08-08T07:33:09;18.50;99.90
29817;DHT22;16805;52.956;5.906;2023-08-08T07:35:36;18.50;99.90
29817;DHT22;16805;52.956;5.906;2023-08-08T07:38:01;18.40;99.90
29817;DHT22;16805;52.956;5.906;2023-08-08T07:40:27;18.40;99.90
29817;DHT22;16805;52.956;5.906;2023-08-08T07:42:53;18.40;99.90
29817;DHT22;16805;52.956;5.906;2023-08-08T07:45:22;18.40;99.90
29817;DHT22;16805;52.956;5.906;2023-08-08T07:47:53;18.40;99.90
29817;DHT22;16805;52.956;5.906;2023-08-08T07:50:27;18.30;99.90
29817;DHT22;16805;52.956;5.906;2023-08-08T07:52:55;18.30;99.90
29817;DHT22;16805;52.956;5.906;2023-08-08T07:55:21;18.30;99.90
29817;DHT22;16805;52.956;5.906;2023-08-08T07:57:51;18.40;99.90
29817;DHT22;16805;52.956;5.906;2023-08-08T08:00:23;18.40;99.90
29817;DHT22;16805;52.956;5.906;2023-08-08T08:03:01;18.50;99.90
29817;DHT22;16805;52.956;5.906;2023-08-08T08:08:54;18.50;99.90
29817;DHT22;16805;52.956;5.906;2023-08-08T08:11:26;18.40;99.90
29817;DHT22;16805;52.956;5.906;2023-08-08T08:13:54;18.40;99.90
29817;DHT22;16805;52.956;5.906;2023-08-08T08:16:30;18.40;99.90
29817;DHT22;16805;52.956;5.906;2023-08-08T08:25:43;18.20;99.90
29817;DHT22;16805;52.956;5.906;2023-08-08T08:28:13;18.20;99.90
29817;DHT22;16805;52.956;5.906;2023-08-08T08:34:45;18.20;99.90
29817;DHT22;16805;52.956;5.906;2023-08-08T08:44:10;18.10;99.90
29817;DHT22;16805;52.956;5.906;2023-08-08T08:46:53;18.10;99.90
29817;DHT22;16805;52.956;5.906;2023-08-08T08:49:29;17.90;99.90
29817;DHT22;16805;52.956;5.906;2023-08-08T08:52:16;17.90;99.90
29817;DHT22;16805;52.956;5.906;2023-08-08T08:58:04;17.80;99.90
29817;DHT22;16805;52.956;5.906;2023-08-08T09:00:31;17.80;99.90
29817;DHT22;16805;52.956;5.906;2023-08-08T09:02:58;17.80;99.90
29817;DHT22;16805;52.956;5.906;2023-08-08T09:05:25;18.00;99.90
29817;DHT22;16805;52.956;5.906;2023-08-08T09:07:51;18.10;99.90
29817;DHT22;16805;52.956;5.906;2023-08-08T09:10:18;18.20;99.90
29817;DHT22;16805;52.956;5.906;2023-08-08T09:12:45;18.20;99.90
29817;DHT22;16805;52.956;5.906;2023-08-08T09:15:13;18.30;99.90
29817;DHT22;16805;52.956;5.906;2023-08-08T09:17:43;18.40;99.90
29817;DHT22;16805;52.956;5.906;2023-08-08T09:20:13;18.50;99.90
29817;DHT22;16805;52.956;5.906;2023-08-08T09:22:38;18.60;99.90
29817;DHT22;16805;52.956;5.906;2023-08-08T09:25:06;18.70;99.90
29817;DHT22;16805;52.956;5.906;2023-08-08T09:27:32;18.80;99.90
29817;DHT22;16805;52.956;5.906;2023-08-08T09:29:58;18.90;99.90
29817;DHT22;16805;52.956;5.906;2023-08-08T09:32:29;19.10;99.90
29817;DHT22;16805;52.956;5.906;2023-08-08T09:34:56;19.20;99.90
29817;DHT22;16805;52.956;5.906;2023-08-08T09:37:22;19.30;99.90
29817;DHT22;16805;52.956;5.906;2023-08-08T09:39:59;19.30;99.90
29817;DHT22;16805;52.956;5.906;2023-08-08T09:42:29;19.40;99.90
29817;DHT22;16805;52.956;5.906;2023-08-08T09:44:58;19.40;99.90
29817;DHT22;16805;52.956;5.906;2023-08-08T09:47:24;19.40;99.90
29817;DHT22;16805;52.956;5.906;2023-08-08T09:50:03;19.50;99.90
29817;DHT22;16805;52.956;5.906;2023-08-08T09:52:36;19.50;99.90
29817;DHT22;16805;52.956;5.906;2023-08-08T09:55:04;19.40;99.90
29817;DHT22;16805;52.956;5.906;2023-08-08T09:57:30;19.40;99.90
29817;DHT22;16805;52.956;5.906;2023-08-08T09:59:57;19.40;99.90
29817;DHT22;16805;52.956;5.906;2023-08-08T10:02:24;19.40;99.90
29817;DHT22;16805;52.956;5.906;2023-08-08T10:04:50;19.60;99.90
29817;DHT22;16805;52.956;5.906;2023-08-08T10:07:16;19.70;99.90
29817;DHT22;16805;52.956;5.906;2023-08-08T10:09:42;19.80;99.90
29817;DHT22;16805;52.956;5.906;2023-08-08T10:12:08;19.90;99.90
29817;DHT22;16805;52.956;5.906;2023-08-08T10:14:38;19.90;99.90
29817;DHT22;16805;52.956;5.906;2023-08-08T10:17:07;20.00;99.90
29817;DHT22;16805;52.956;5.906;2023-08-08T10:19:33;20.10;99.90
29817;DHT22;16805;52.956;5.906;2023-08-08T10:22:04;20.10;99.90
29817;DHT22;16805;52.956;5.906;2023-08-08T10:24:34;20.10;99.90
29817;DHT22;16805;52.956;5.906;2023-08-08T10:27:04;20.10;99.90
29817;DHT22;16805;52.956;5.906;2023-08-08T10:29:32;20.10;99.90
29817;DHT22;16805;52.956;5.906;2023-08-08T10:32:05;20.20;99.90
29817;DHT22;16805;52.956;5.906;2023-08-08T10:34:42;20.30;99.90
29817;DHT22;16805;52.956;5.906;2023-08-08T10:37:13;20.40;99.90
29817;DHT22;16805;52.956;5.906;2023-08-08T10:39:54;20.50;99.90
29817;DHT22;16805;52.956;5.906;2023-08-08T10:42:21;20.50;99.90
29817;DHT22;16805;52.956;5.906;2023-08-08T10:45:00;20.50;99.90
29817;DHT22;16805;52.956;5.906;2023-08-08T10:47:36;20.40;99.90
29817;DHT22;16805;52.956;5.906;2023-08-08T10:58:20;20.20;99.90
29817;DHT22;16805;52.956;5.906;2023-08-08T11:00:45;20.10;99.90
29817;DHT22;16805;52.956;5.906;2023-08-08T11:03:11;20.00;99.90
29817;DHT22;16805;52.956;5.906;2023-08-08T11:05:37;19.90;99.90
29817;DHT22;16805;52.956;5.906;2023-08-08T11:08:04;19.80;99.90
29817;DHT22;16805;52.956;5.906;2023-08-08T11:10:40;19.70;99.90
29817;DHT22;16805;52.956;5.906;2023-08-08T11:13:08;19.70;99.90
29817;DHT22;16805;52.956;5.906;2023-08-08T11:15:34;19.70;99.90
29817;DHT22;16805;52.956;5.906;2023-08-08T11:18:01;19.80;99.90
29817;DHT22;16805;52.956;5.906;2023-08-08T11:20:31;19.80;99.90
29817;DHT22;16805;52.956;5.906;2023-08-08T11:22:57;19.80;99.90
29817;DHT22;16805;52.956;5.906;2023-08-08T11:25:27;19.70;99.90
29817;DHT22;16805;52.956;5.906;2023-08-08T11:27:54;19.70;99.90
29817;DHT22;16805;52.956;5.906;2023-08-08T11:30:21;19.70;99.90
29817;DHT22;16805;52.956;5.906;2023-08-08T11:32:48;19.80;99.90
29817;DHT22;16805;52.956;5.906;2023-08-08T11:35:20;19.80;99.90
29817;DHT22;16805;52.956;5.906;2023-08-08T11:37:48;19.70;99.90
29817;DHT22;16805;52.956;5.906;2023-08-08T11:40:15;19.60;99.90
29817;DHT22;16805;52.956;5.906;2023-08-08T11:42:41;19.70;99.90
29817;DHT22;16805;52.956;5.906;2023-08-08T11:45:14;19.70;99.90
29817;DHT22;16805;52.956;5.906;2023-08-08T11:47:40;19.80;99.90
29817;DHT22;16805;52.956;5.906;2023-08-08T11:50:08;19.80;99.90
29817;DHT22;16805;52.956;5.906;2023-08-08T11:52:46;19.90;99.90
29817;DHT22;16805;52.956;5.906;2023-08-08T11:55:12;19.90;99.90
29817;DHT22;16805;52.956;5.906;2023-08-08T11:57:41;20.00;99.90
29817;DHT22;16805;52.956;5.906;2023-08-08T12:00:10;19.90;99.90
29817;DHT22;16805;52.956;5.906;2023-08-08T12:02:39;19.90;99.90
29817;DHT22;16805;52.956;5.906;2023-08-08T12:05:09;19.90;99.90
29817;DHT22;16805;52.956;5.906;2023-08-08T12:07:37;19.80;99.90
29817;DHT22;16805;52.956;5.906;2023-08-08T12:10:03;19.80;99.90
29817;DHT22;16805;52.956;5.906;2023-08-08T12:12:32;19.90;99.90
29817;DHT22;16805;52.956;5.906;2023-08-08T12:15:07;19.90;99.90
29817;DHT22;16805;52.956;5.906;2023-08-08T12:17:33;19.90;99.90
29817;DHT22;16805;52.956;5.906;2023-08-08T12:19:59;19.90;99.90
29817;DHT22;16805;52.956;5.906;2023-08-08T12:22:25;20.00;99.90
29817;DHT22;16805;52.956;5.906;2023-08-08T12:24:51;20.00;99.90
29817;DHT22;16805;52.956;5.906;2023-08-08T12:27:17;20.00;99.90
29817;DHT22;16805;52.956;5.906;2023-08-08T12:29:43;20.00;99.90
29817;DHT22;16805;52.956;5.906;2023-08-08T12:32:10;20.00;99.90
29817;DHT22;16805;52.956;5.906;2023-08-08T12:34:35;20.00;99.90
29817;DHT22;16805;52.956;5.906;2023-08-08T12:37:01;20.10;99.90
29817;DHT22;16805;52.956;5.906;2023-08-08T12:39:28;20.10;99.90
29817;DHT22;16805;52.956;5.906;2023-08-08T12:41:54;20.10;99.90
29817;DHT22;16805;52.956;5.906;2023-08-08T12:44:20;20.20;99.90
29817;DHT22;16805;52.956;5.906;2023-08-08T12:46:45;20.10;99.90
29817;DHT22;16805;52.956;5.906;2023-08-08T12:49:11;20.20;99.90
29817;DHT22;16805;52.956;5.906;2023-08-08T12:51:37;20.20;99.90
29817;DHT22;16805;52.956;5.906;2023-08-08T12:54:03;20.20;99.90
29817;DHT22;16805;52.956;5.906;2023-08-08T12:56:29;20.20;99.90
29817;DHT22;16805;52.956;5.906;2023-08-08T12:58:54;20.20;99.90
29817;DHT22;16805;52.956;5.906;2023-08-08T13:01:20;20.20;99.90
29817;DHT22;16805;52.956;5.906;2023-08-08T13:03:46;20.10;99.90
29817;DHT22;16805;52.956;5.906;2023-08-08T13:06:12;20.10;99.90
29817;DHT22;16805;52.956;5.906;2023-08-08T13:08:38;20.10;99.90
29817;DHT22;16805;52.956;5.906;2023-08-08T13:11:04;20.10;99.90
29817;DHT22;16805;52.956;5.906;2023-08-08T13:13:30;20.00;99.90
29817;DHT22;16805;52.956;5.906;2023-08-08T13:15:56;19.90;99.90
29817;DHT22;16805;52.956;5.906;2023-08-08T13:18:22;19.90;99.90
29817;DHT22;16805;52.956;5.906;2023-08-08T13:20:48;19.90;99.90
29817;DHT22;16805;52.956;5.906;2023-08-08T13:23:14;19.90;99.90
29817;DHT22;16805;52.956;5.906;2023-08-08T13:25:40;19.80;99.90
29817;DHT22;16805;52.956;5.906;2023-08-08T13:28:07;19.70;99.90
29817;DHT22;16805;52.956;5.906;2023-08-08T13:30:33;19.70;99.90
29817;DHT22;16805;52.956;5.906;2023-08-08T13:32:59;19.70;99.90
29817;DHT22;16805;52.956;5.906;2023-08-08T13:35:25;19.80;99.90
29817;DHT22;16805;52.956;5.906;2023-08-08T13:37:51;19.80;99.90
29817;DHT22;16805;52.956;5.906;2023-08-08T13:40:18;19.80;99.90
29817;DHT22;16805;52.956;5.906;2023-08-08T13:42:44;19.80;99.90
29817;DHT22;16805;52.956;5.906;2023-08-08T13:45:14;19.80;99.90
29817;DHT22;16805;52.956;5.906;2023-08-08T13:47:39;19.80;99.90
29817;DHT22;16805;52.956;5.906;2023-08-08T13:50:06;19.80;99.90
29817;DHT22;16805;52.956;5.906;2023-08-08T13:52:32;19.80;99.90
29817;DHT22;16805;52.956;5.906;2023-08-08T13:54:58;19.90;99.90
29817;DHT22;16805;52.956;5.906;2023-08-08T13:57:24;19.90;99.90
29817;DHT22;16805;52.956;5.906;2023-08-08T13:59:50;19.80;99.90
29817;DHT22;16805;52.956;5.906;2023-08-08T14:02:16;19.90;99.90
29817;DHT22;16805;52.956;5.906;2023-08-08T14:04:45;19.90;99.90
29817;DHT22;16805;52.956;5.906;2023-08-08T14:07:11;19.80;99.90
29817;DHT22;16805;52.956;5.906;2023-08-08T14:09:37;19.80;99.90
29817;DHT22;16805;52.956;5.906;2023-08-08T14:12:03;19.80;99.90
29817;DHT22;16805;52.956;5.906;2023-08-08T14:14:29;19.90;99.90
29817;DHT22;16805;52.956;5.906;2023-08-08T14:16:55;19.90;99.90
29817;DHT22;16805;52.956;5.906;2023-08-08T14:19:21;19.80;99.90
29817;DHT22;16805;52.956;5.906;2023-08-08T14:21:46;19.80;99.90
29817;DHT22;16805;52.956;5.906;2023-08-08T14:24:12;19.60;99.90
29817;DHT22;16805;52.956;5.906;2023-08-08T14:26:38;19.60;99.90
29817;DHT22;16805;52.956;5.906;2023-08-08T14:29:04;19.50;99.90
29817;DHT22;16805;52.956;5.906;2023-08-08T14:31:30;19.40;99.90
29817;DHT22;16805;52.956;5.906;2023-08-08T14:33:56;19.30;99.90
29817;DHT22;16805;52.956;5.906;2023-08-08T14:36:22;19.30;99.90
29817;DHT22;16805;52.956;5.906;2023-08-08T14:38:48;19.30;99.90
29817;DHT22;16805;52.956;5.906;2023-08-08T14:41:13;19.30;99.90
29817;DHT22;16805;52.956;5.906;2023-08-08T14:43:39;19.30;99.90
29817;DHT22;16805;52.956;5.906;2023-08-08T14:46:05;19.30;99.90
29817;DHT22;16805;52.956;5.906;2023-08-08T14:48:31;19.30;99.90
29817;DHT22;16805;52.956;5.906;2023-08-08T14:50:57;19.30;99.90
29817;DHT22;16805;52.956;5.906;2023-08-08T14:53:23;19.20;99.90
29817;DHT22;16805;52.956;5.906;2023-08-08T14:55:49;19.10;99.90
29817;DHT22;16805;52.956;5.906;2023-08-08T14:58:15;19.10;99.90
29817;DHT22;16805;52.956;5.906;2023-08-08T15:00:41;19.10;99.90
29817;DHT22;16805;52.956;5.906;2023-08-08T15:03:07;19.00;99.90
29817;DHT22;16805;52.956;5.906;2023-08-08T15:05:33;19.00;99.90
29817;DHT22;16805;52.956;5.906;2023-08-08T15:07:59;18.90;99.90
29817;DHT22;16805;52.956;5.906;2023-08-08T15:10:25;18.80;99.90
29817;DHT22;16805;52.956;5.906;2023-08-08T15:12:50;18.80;99.90
29817;DHT22;16805;52.956;5.906;2023-08-08T15:15:16;18.80;99.90
29817;DHT22;16805;52.956;5.906;2023-08-08T15:17:45;18.70;99.90
29817;DHT22;16805;52.956;5.906;2023-08-08T15:20:11;18.70;99.90
29817;DHT22;16805;52.956;5.906;2023-08-08T15:22:37;18.60;99.90
29817;DHT22;16805;52.956;5.906;2023-08-08T15:25:03;18.60;99.90
29817;DHT22;16805;52.956;5.906;2023-08-08T15:27:29;18.60;99.90
29817;DHT22;16805;52.956;5.906;2023-08-08T15:29:55;18.60;99.90
29817;DHT22;16805;52.956;5.906;2023-08-08T15:32:21;18.60;99.90
29817;DHT22;16805;52.956;5.906;2023-08-08T15:34:47;18.50;99.90
29817;DHT22;16805;52.956;5.906;2023-08-08T15:37:13;18.50;99.90
29817;DHT22;16805;52.956;5.906;2023-08-08T15:39:40;18.50;99.90
29817;DHT22;16805;52.956;5.906;2023-08-08T15:42:06;18.40;99.90
29817;DHT22;16805;52.956;5.906;2023-08-08T15:44:31;18.30;99.90
29817;DHT22;16805;52.956;5.906;2023-08-08T15:46:57;18.30;99.90
29817;DHT22;16805;52.956;5.906;2023-08-08T15:49:23;18.30;99.90
29817;DHT22;16805;52.956;5.906;2023-08-08T15:51:49;18.30;99.90
29817;DHT22;16805;52.956;5.906;2023-08-08T15:54:14;18.30;99.90
29817;DHT22;16805;52.956;5.906;2023-08-08T15:56:40;18.30;99.90
29817;DHT22;16805;52.956;5.906;2023-08-08T15:59:06;18.30;99.90
29817;DHT22;16805;52.956;5.906;2023-08-08T16:01:32;18.30;99.90
29817;DHT22;16805;52.956;5.906;2023-08-08T16:03:58;18.30;99.90
29817;DHT22;16805;52.956;5.906;2023-08-08T16:06:24;18.30;99.90
29817;DHT22;16805;52.956;5.906;2023-08-08T16:08:51;18.30;99.90
29817;DHT22;16805;52.956;5.906;2023-08-08T16:11:17;18.30;99.90
29817;DHT22;16805;52.956;5.906;2023-08-08T16:13:42;18.30;99.90
29817;DHT22;16805;52.956;5.906;2023-08-08T16:16:08;18.30;99.90
29817;DHT22;16805;52.956;5.906;2023-08-08T16:18:34;18.20;99.90
29817;DHT22;16805;52.956;5.906;2023-08-08T16:21:00;18.30;99.90
29817;DHT22;16805;52.956;5.906;2023-08-08T16:23:26;18.30;99.90
29817;DHT22;16805;52.956;5.906;2023-08-08T16:25:51;18.30;99.90
29817;DHT22;16805;52.956;5.906;2023-08-08T16:28:18;18.30;99.90
29817;DHT22;16805;52.956;5.906;2023-08-08T16:30:43;18.30;99.90
29817;DHT22;16805;52.956;5.906;2023-08-08T16:33:09;18.30;99.90
29817;DHT22;16805;52.956;5.906;2023-08-08T16:35:41;18.30;99.90
29817;DHT22;16805;52.956;5.906;2023-08-08T16:38:07;18.30;99.90
29817;DHT22;16805;52.956;5.906;2023-08-08T16:40:32;18.20;99.90
29817;DHT22;16805;52.956;5.906;2023-08-08T16:42:58;18.20;99.90
29817;DHT22;16805;52.956;5.906;2023-08-08T16:45:24;18.20;99.90
29817;DHT22;16805;52.956;5.906;2023-08-08T16:47:50;18.10;99.90
29817;DHT22;16805;52.956;5.906;2023-08-08T16:50:18;18.10;99.90
29817;DHT22;16805;52.956;5.906;2023-08-08T16:52:43;18.00;99.90
29817;DHT22;16805;52.956;5.906;2023-08-08T16:55:09;18.00;99.90
29817;DHT22;16805;52.956;5.906;2023-08-08T16:57:37;18.00;99.90
29817;DHT22;16805;52.956;5.906;2023-08-08T17:00:04;18.00;99.90
29817;DHT22;16805;52.956;5.906;2023-08-08T17:02:30;18.00;99.90
29817;DHT22;16805;52.956;5.906;2023-08-08T17:04:56;17.90;99.90
29817;DHT22;16805;52.956;5.906;2023-08-08T17:07:22;17.90;99.90
29817;DHT22;16805;52.956;5.906;2023-08-08T17:09:50;17.80;99.90
29817;DHT22;16805;52.956;5.906;2023-08-08T17:12:16;17.80;99.90
29817;DHT22;16805;52.956;5.906;2023-08-08T17:14:42;17.80;99.90
29817;DHT22;16805;52.956;5.906;2023-08-08T17:17:07;17.80;99.90
29817;DHT22;16805;52.956;5.906;2023-08-08T17:19:33;17.80;99.90
29817;DHT22;16805;52.956;5.906;2023-08-08T17:21:59;17.70;99.90
29817;DHT22;16805;52.956;5.906;2023-08-08T17:24:24;17.70;99.90
29817;DHT22;16805;52.956;5.906;2023-08-08T17:26:50;17.70;99.90
29817;DHT22;16805;52.956;5.906;2023-08-08T17:29:16;17.60;99.90
29817;DHT22;16805;52.956;5.906;2023-08-08T17:31:42;17.60;99.90
29817;DHT22;16805;52.956;5.906;2023-08-08T17:34:07;17.60;99.90